createdAt,value
2023-03-01T00:09:05.477Z,3.2
2023-03-01T00:19:13.374Z,3.2
2023-03-01T00:29:19.530Z,3.2
2023-03-01T00:39:25.715Z,3.2
2023-03-01T00:49:33.637Z,3.1
2023-03-01T00:59:39.835Z,3.1
2023-03-01T01:09:47.750Z,3.1
2023-03-01T01:19:53.919Z,3.1
2023-03-01T01:30:00.029Z,3
2023-03-01T01:40:08.002Z,3
2023-03-01T01:50:15.913Z,3
2023-03-01T02:00:22.127Z,3
2023-03-01T02:10:30.032Z,3
2023-03-01T02:20:36.203Z,3
2023-03-01T02:30:44.111Z,2.9
2023-03-01T02:40:50.282Z,2.9
2023-03-01T02:50:56.412Z,2.9
2023-03-01T03:01:02.678Z,2.9
2023-03-01T03:11:08.718Z,2.8
2023-03-01T03:21:16.724Z,2.8
2023-03-01T03:31:22.898Z,2.8
2023-03-01T03:41:30.783Z,2.8
2023-03-01T03:51:36.932Z,2.7
2023-03-01T04:01:43.128Z,2.7
2023-03-01T04:11:51.014Z,2.7
2023-03-01T04:21:58.981Z,2.8
2023-03-01T04:32:07.000Z,2.9
2023-03-01T04:42:13.073Z,2.7
2023-03-01T04:52:19.206Z,3
2023-03-01T05:02:27.312Z,3.1
2023-03-01T05:22:41.296Z,3.3
2023-03-01T05:32:49.171Z,3.4
2023-03-01T05:42:55.377Z,3.5
2023-03-01T05:53:03.254Z,3.5
2023-03-01T06:03:09.545Z,3.5
2023-03-01T06:13:18.741Z,3.8
2023-03-01T06:23:23.542Z,3.9
2023-03-01T06:33:31.468Z,4
2023-03-01T06:43:39.452Z,2.8
2023-03-01T06:53:45.537Z,2.4
2023-03-01T07:03:53.609Z,2.1
2023-03-01T07:13:59.648Z,1.8
2023-03-01T07:24:07.611Z,2
2023-03-01T07:34:13.734Z,1.9
2023-03-01T07:44:21.753Z,1.7
2023-03-01T07:54:27.845Z,1.9
2023-03-01T08:04:34.019Z,1.9
2023-03-01T08:14:41.936Z,2.3
2023-03-01T08:24:49.897Z,2.3
2023-03-01T08:34:56.100Z,2.1
2023-03-01T08:45:02.197Z,2.1
2023-03-01T08:55:10.127Z,2.2
2023-03-01T09:05:16.793Z,1.5
2023-03-01T09:15:24.209Z,1.6
2023-03-01T09:25:30.390Z,-0.6
2023-03-01T09:35:38.397Z,1
2023-03-01T09:45:44.538Z,1.3
2023-03-01T09:55:50.639Z,2.1
2023-03-01T10:05:56.919Z,1.5
2023-03-01T10:16:04.803Z,2.5
2023-03-01T10:26:12.735Z,2
2023-03-01T10:36:18.841Z,2.4
2023-03-01T10:46:26.898Z,0.8
2023-03-01T10:56:34.695Z,0.3
2023-03-01T11:06:42.684Z,0.9
2023-03-01T11:16:50.582Z,3.4
2023-03-01T11:26:58.554Z,3.7
2023-03-01T11:37:04.680Z,2.8
2023-03-01T11:47:12.784Z,3.1
2023-03-01T11:57:18.768Z,3.6
2023-03-01T12:07:24.970Z,4.1
2023-03-01T12:17:32.950Z,3.4
2023-03-01T12:27:40.822Z,2.7
2023-03-01T12:37:46.965Z,3.2
2023-03-01T12:47:54.918Z,2.6
2023-03-01T12:58:01.055Z,4.2
2023-03-01T13:08:07.396Z,2.1
2023-03-01T13:18:15.165Z,0.9
2023-03-01T13:28:21.329Z,2.2
2023-03-01T13:38:27.490Z,2.5
2023-03-01T13:48:35.453Z,2.2
2023-03-01T13:58:41.574Z,2.6
2023-03-01T14:08:49.603Z,2.8
2023-03-01T14:18:55.672Z,3.7
2023-03-01T14:29:03.649Z,4
2023-03-01T14:39:09.776Z,4.2
2023-03-01T14:49:15.996Z,4.3
2023-03-01T14:59:23.906Z,4.5
2023-03-01T15:09:31.848Z,4.5
2023-03-01T15:19:39.744Z,4.5
2023-03-01T15:29:47.694Z,4.5
2023-03-01T15:39:53.859Z,4.5
2023-03-01T15:50:00.049Z,4.7
2023-03-01T16:00:07.923Z,4.7
2023-03-01T16:10:14.164Z,5
2023-03-01T16:20:28.128Z,4.9
2023-03-01T16:30:26.404Z,4.9
2023-03-01T16:40:32.567Z,4.9
2023-03-01T16:50:40.574Z,5.1
2023-03-01T17:00:48.442Z,5.1
2023-03-01T17:10:56.395Z,5
2023-03-01T17:21:02.527Z,5
2023-03-01T17:31:10.474Z,4.8
2023-03-01T17:41:16.608Z,4.8
2023-03-01T17:51:24.573Z,4.8
2023-03-01T18:01:31.243Z,4.8
2023-03-01T18:11:38.684Z,4.7
2023-03-01T18:21:44.799Z,4.7
2023-03-01T18:31:52.842Z,4.7
2023-03-01T18:42:00.679Z,4.7
2023-03-01T18:52:06.947Z,4.7
2023-03-01T19:02:14.810Z,4.7
2023-03-01T19:12:22.756Z,4.6
2023-03-01T19:22:30.658Z,4.4
2023-03-01T19:32:38.708Z,4.4
2023-03-01T19:42:46.572Z,4.4
2023-03-01T19:52:54.533Z,4.4
2023-03-01T20:03:00.700Z,4.3
2023-03-01T20:13:08.617Z,4.3
2023-03-01T20:23:14.740Z,4.3
2023-03-01T20:33:20.970Z,4.3
2023-03-01T20:43:28.831Z,4.3
2023-03-01T20:53:36.843Z,4.2
2023-03-01T21:03:42.967Z,4.2
2023-03-01T21:13:49.159Z,4.2
2023-03-01T21:23:57.042Z,4.2
2023-03-01T21:34:03.210Z,4.1
2023-03-01T21:44:11.128Z,4.1
2023-03-01T21:54:19.397Z,4.1
2023-03-01T22:04:26.997Z,4.1
2023-03-01T22:14:35.015Z,4
2023-03-01T22:24:42.881Z,4
2023-03-01T22:34:50.839Z,4
2023-03-01T22:44:58.750Z,4
2023-03-01T22:55:06.727Z,4
2023-03-01T23:05:12.856Z,3.7
2023-03-01T23:15:20.896Z,4
2023-03-01T23:25:28.750Z,4
2023-03-01T23:35:36.756Z,3.9
2023-03-01T23:45:44.718Z,3.9
2023-03-01T23:55:52.766Z,3.9
